Time;durP1;ratioP1;P1;durP2;ratioP2;P2;SDS_P1;SDS_P2;PMS_P1;PMS_P2;Temp;Humidity;BMP_temperature;BMP_pressure;BME280_temperature;BME280_humidity;BME280_pressure;Samples;Min_cycle;Max_cycle;Signal;HPM_P1;HPM_P2
2021/11/10 00:02:22;;;;;;;13.50;7.88;;;;;;;4.41;74.47;96531.44;5076926;28;20402;-52
2021/11/10 00:04:49;;;;;;;11.68;7.80;;;;;;;3.99;75.92;96538.09;5074516;28;20044;-52
2021/11/10 00:07:16;;;;;;;10.38;7.38;;;;;;;3.96;76.18;96536.00;5073906;28;20131;-53
2021/11/10 00:09:43;;;;;;;13.27;8.15;;;;;;;3.70;76.59;96527.25;5063984;28;20056;-52
2021/11/10 00:12:10;;;;;;;11.02;7.47;;;;;;;3.70;77.13;96527.25;5082211;28;20054;-53
2021/11/10 00:14:37;;;;;;;13.60;7.30;;;;;;;3.81;76.29;96522.66;5072587;28;20123;-53
2021/11/10 00:17:04;;;;;;;11.63;7.40;;;;;;;3.80;76.43;96521.06;5072540;28;20036;-54
2021/11/10 00:19:31;;;;;;;11.68;7.78;;;;;;;3.88;76.43;96530.41;5070528;28;20462;-55
2021/11/10 00:21:58;;;;;;;11.82;7.65;;;;;;;3.97;76.26;96534.91;5072552;28;20045;-54
2021/11/10 00:24:25;;;;;;;13.27;7.75;;;;;;;3.75;76.16;96527.25;5067410;28;20070;-52
2021/11/10 00:26:52;;;;;;;13.90;7.28;;;;;;;3.85;75.60;96531.75;5056824;28;20048;-49
2021/11/10 00:29:19;;;;;;;13.23;8.35;;;;;;;3.83;75.69;96535.75;5077356;28;20123;-50
2021/11/10 00:31:46;;;;;;;12.18;7.70;;;;;;;4.09;75.28;96521.19;5067025;28;20127;-50
2021/11/10 00:34:13;;;;;;;11.52;7.93;;;;;;;4.01;75.51;96519.09;5073726;28;20048;-48
2021/11/10 00:36:40;;;;;;;11.95;8.10;;;;;;;3.64;76.11;96503.44;5056254;28;20043;-53
2021/11/10 00:39:07;;;;;;;14.13;8.50;;;;;;;3.57;76.26;96505.63;5073275;28;20053;-51
2021/11/10 00:41:35;;;;;;;11.82;7.88;;;;;;;3.53;76.26;96509.94;5069332;28;20139;-54
2021/11/10 00:44:02;;;;;;;10.82;7.20;;;;;;;3.61;76.23;96498.69;5073065;28;20115;-54
2021/11/10 00:46:30;;;;;;;11.70;7.97;;;;;;;3.66;75.93;96507.47;5073402;28;20076;-53
2021/11/10 00:48:58;;;;;;;15.00;9.40;;;;;;;3.47;76.52;96504.56;5056802;28;20044;-53
2021/11/10 00:51:28;;;;;;;14.60;8.38;;;;;;;3.40;76.94;96508.63;5085126;28;20394;-54
2021/11/10 00:53:55;;;;;;;12.90;8.05;;;;;;;3.47;76.99;96511.81;5074007;28;20136;-55
2021/11/10 00:56:24;;;;;;;13.48;8.38;;;;;;;3.36;76.70;96503.03;5076701;28;20056;-50
2021/11/10 00:58:52;;;;;;;15.25;9.05;;;;;;;3.55;76.26;96508.59;5056986;28;20036;-51
2021/11/10 01:01:19;;;;;;;13.85;8.40;;;;;;;3.42;75.85;96507.28;5052808;28;20044;-49
2021/11/10 01:03:47;;;;;;;11.65;8.23;;;;;;;3.36;76.44;96499.56;5055310;28;20040;-53
2021/11/10 01:06:14;;;;;;;13.70;8.52;;;;;;;3.42;76.70;96493.91;5078769;28;20558;-49
2021/11/10 01:08:40;;;;;;;13.07;8.35;;;;;;;3.30;76.56;96495.28;5055673;28;20048;-48
2021/11/10 01:11:07;;;;;;;17.10;9.30;;;;;;;3.35;76.72;96498.75;5046284;28;20498;-50
2021/11/10 01:13:35;;;;;;;12.15;7.63;;;;;;;3.28;76.66;96495.53;5035348;28;20079;-48
2021/11/10 01:16:04;;;;;;;14.95;8.98;;;;;;;3.49;76.65;96491.75;5055222;28;20048;-50
2021/11/10 01:18:31;;;;;;;13.43;8.77;;;;;;;3.34;77.17;96491.00;5065974;28;20036;-52
2021/11/10 01:21:03;;;;;;;13.13;8.90;;;;;;;3.34;77.96;96494.47;5060346;28;20040;-49
2021/11/10 01:23:30;;;;;;;13.05;9.13;;;;;;;3.25;76.99;96490.72;5051332;28;20087;-50
2021/11/10 01:25:58;;;;;;;14.75;9.20;;;;;;;3.37;77.00;96488.56;5050748;28;20493;-52
2021/11/10 01:28:25;;;;;;;12.90;8.75;;;;;;;3.35;77.28;96482.72;5080364;28;20559;-49
2021/11/10 01:30:52;;;;;;;13.10;9.00;;;;;;;3.58;76.63;96486.63;5059780;28;20085;-52
2021/11/10 01:33:23;;;;;;;14.45;10.20;;;;;;;3.48;77.00;96489.34;5050674;28;20095;-50
2021/11/10 01:35:51;;;;;;;17.00;10.07;;;;;;;3.47;77.16;96487.72;5044401;28;20072;-51
2021/11/10 01:38:32;;;;;;;15.20;9.80;;;;;;;3.46;77.06;96492.28;5056820;28;20137;-52
2021/11/10 01:41:00;;;;;;;16.50;10.00;;;;;;;3.37;77.28;96485.88;5072765;28;20530;-52
2021/11/10 01:43:32;;;;;;;17.05;10.18;;;;;;;3.18;77.58;96491.00;5065718;28;20050;-54
2021/11/10 01:45:59;;;;;;;13.18;8.93;;;;;;;3.10;77.96;96480.88;5055105;28;20046;-53
2021/11/10 01:48:30;;;;;;;15.95;8.90;;;;;;;3.19;77.89;96492.63;5054900;28;20044;-54
2021/11/10 01:51:01;;;;;;;13.90;9.40;;;;;;;3.59;76.73;96485.56;5049242;28;20455;-51
2021/11/10 01:53:28;;;;;;;16.52;9.73;;;;;;;4.01;74.42;96478.94;5070672;28;20044;-55
2021/11/10 01:55:55;;;;;;;17.95;10.50;;;;;;;3.64;75.43;96490.06;5041123;28;20068;-49
2021/11/10 01:58:22;;;;;;;17.55;10.15;;;;;;;3.96;75.56;96489.66;5053390;28;20082;-47
2021/11/10 02:00:49;;;;;;;15.80;9.52;;;;;;;3.94;75.31;96495.31;5053941;28;20406;-49
2021/11/10 02:03:16;;;;;;;16.45;9.95;;;;;;;3.50;77.11;96482.63;5053128;28;20041;-47
2021/11/10 02:05:50;;;;;;;15.55;9.57;;;;;;;3.60;76.68;96479.13;5079085;28;20052;-50
2021/11/10 02:08:43;;;;;;;16.15;9.90;;;;;;;3.21;76.91;96476.31;5056280;28;20136;-52
2021/11/10 02:11:19;;;;;;;14.73;8.85;;;;;;;3.20;77.24;96472.03;5054266;28;20043;-52
2021/11/10 02:13:55;;;;;;;16.40;9.88;;;;;;;3.10;77.37;96472.88;5033904;28;20037;-51
2021/11/10 02:16:22;;;;;;;17.27;9.70;;;;;;;3.00;78.82;96473.69;5060772;28;20118;-52
2021/11/10 02:18:50;;;;;;;13.45;9.43;;;;;;;2.87;79.55;96476.13;5054482;28;20054;-53
2021/11/10 02:21:22;;;;;;;13.77;8.77;;;;;;;2.79;80.04;96474.78;5053156;28;20038;-50
2021/11/10 02:23:49;;;;;;;16.92;9.73;;;;;;;2.76;80.11;96476.13;5066585;28;20618;-52
2021/11/10 02:26:25;;;;;;;15.45;10.63;;;;;;;2.83;80.37;96478.53;5063167;28;20044;-52
2021/11/10 02:28:52;;;;;;;18.30;9.65;;;;;;;2.97;79.96;96478.78;5072748;28;20131;-51
2021/11/10 02:31:19;;;;;;;17.33;9.63;;;;;;;3.01;79.17;96480.63;5055097;28;20037;-49
2021/11/10 02:33:47;;;;;;;15.70;10.00;;;;;;;3.14;78.63;96478.47;5067318;28;20040;-52
2021/11/10 02:36:14;;;;;;;14.02;9.77;;;;;;;3.31;78.28;96484.31;5058633;28;20097;-49
2021/11/10 02:38:41;;;;;;;18.92;9.45;;;;;;;3.29;77.44;96475.78;5068460;28;20047;-50
2021/11/10 02:41:09;;;;;;;14.95;9.05;;;;;;;3.21;77.64;96477.09;5070869;28;20054;-51
2021/11/10 02:43:36;;;;;;;17.95;9.85;;;;;;;3.22;77.74;96480.59;5059872;28;20068;-49
2021/11/10 02:46:03;;;;;;;13.80;9.23;;;;;;;3.19;78.00;96471.25;5070008;28;20155;-49
2021/11/10 02:48:30;;;;;;;15.88;9.85;;;;;;;3.19;77.72;96470.44;5062539;28;20131;-54
2021/11/10 02:50:57;;;;;;;15.07;9.65;;;;;;;2.98;77.89;96475.03;5068168;28;20414;-51
2021/11/10 02:53:24;;;;;;;16.52;9.45;;;;;;;3.04;78.26;96466.72;5063077;28;20557;-49
2021/11/10 02:55:52;;;;;;;16.10;9.15;;;;;;;2.82;79.21;96466.22;5062201;28;20047;-52
2021/11/10 02:58:19;;;;;;;14.32;9.00;;;;;;;2.98;78.14;96465.13;5070140;28;20398;-51
2021/11/10 03:00:46;;;;;;;16.10;10.02;;;;;;;3.57;77.27;96455.59;5036780;28;20420;-49
2021/11/10 03:03:14;;;;;;;12.23;9.30;;;;;;;3.29;77.22;96462.41;5051553;28;20063;-52
2021/11/10 03:05:47;;;;;;;14.25;9.68;;;;;;;3.24;77.93;96457.84;5036224;28;20053;-52
2021/11/10 03:08:19;;;;;;;15.43;9.18;;;;;;;3.00;78.49;96452.31;5066476;28;20050;-51
2021/11/10 03:10:51;;;;;;;16.58;11.80;;;;;;;2.99;78.47;96456.06;5060963;28;20098;-48
2021/11/10 03:13:19;;;;;;;16.65;10.18;;;;;;;3.03;77.99;96450.97;5043513;28;20436;-51
2021/11/10 03:15:47;;;;;;;16.73;9.18;;;;;;;2.96;77.89;96448.56;5053401;28;20098;-53
2021/11/10 03:18:14;;;;;;;14.95;9.70;;;;;;;2.81;78.65;96451.28;5068955;28;20107;-52
2021/11/10 03:20:46;;;;;;;14.70;8.82;;;;;;;2.75;79.06;96455.00;5041903;28;20048;-55
2021/11/10 03:23:13;;;;;;;14.00;9.30;;;;;;;2.75;79.08;96455.81;5060320;28;20508;-54
2021/11/10 03:25:43;;;;;;;15.52;8.98;;;;;;;2.81;79.16;96445.94;5052786;28;20093;-54
2021/11/10 03:28:10;;;;;;;13.05;9.60;;;;;;;2.92;78.51;96438.69;5064503;28;20043;-51
2021/11/10 03:30:45;;;;;;;13.50;8.73;;;;;;;2.95;78.26;96448.84;5046930;28;20520;-53
2021/11/10 03:33:13;;;;;;;15.50;9.45;;;;;;;2.81;78.68;96444.06;5048388;28;20044;-48
2021/11/10 03:35:41;;;;;;;13.95;9.75;;;;;;;2.77;79.01;96444.88;5051725;28;20086;-47
2021/11/10 03:38:14;;;;;;;13.27;9.45;;;;;;;2.66;78.95;96444.06;5051307;28;20043;-50
2021/11/10 03:40:44;;;;;;;15.82;10.00;;;;;;;2.61;79.50;96433.41;5057228;28;20040;-52
2021/11/10 03:43:11;;;;;;;15.60;9.52;;;;;;;2.74;79.54;96432.03;5049256;28;20041;-50
2021/11/10 03:45:38;;;;;;;12.65;8.48;;;;;;;2.67;79.34;96432.31;5060254;28;20447;-53
2021/11/10 03:48:10;;;;;;;15.57;10.32;;;;;;;2.73;79.42;96425.09;5073419;28;20052;-48
2021/11/10 03:50:40;;;;;;;16.48;9.65;;;;;;;2.69;79.53;96421.34;5062026;28;20139;-50
2021/11/10 03:53:07;;;;;;;13.13;9.07;;;;;;;2.74;79.61;96432.84;5048677;28;20045;-49
2021/11/10 03:55:37;;;;;;;14.65;9.73;;;;;;;2.69;79.52;96430.16;5042699;28;20048;-49
2021/11/10 03:58:08;;;;;;;11.82;8.55;;;;;;;2.74;79.67;96434.72;5066279;28;20036;-46
2021/11/10 04:00:36;;;;;;;13.27;9.23;;;;;;;2.85;79.01;96435.50;5072068;28;20062;-50
2021/11/10 04:03:04;;;;;;;12.63;8.63;;;;;;;3.00;78.26;96425.56;5063444;28;20505;-47
2021/11/10 04:05:34;;;;;;;12.23;9.25;;;;;;;2.89;78.92;96431.19;5076180;28;20072;-47
2021/11/10 04:08:01;;;;;;;14.48;8.88;;;;;;;2.85;78.83;96427.47;5068744;28;20482;-52
2021/11/10 04:10:29;;;;;;;13.95;9.32;;;;;;;2.90;78.60;96430.94;5056204;28;20554;-47
2021/11/10 04:12:56;;;;;;;14.02;8.90;;;;;;;2.81;79.12;96433.34;5064395;28;20072;-54
2021/11/10 04:15:29;;;;;;;13.38;9.18;;;;;;;2.73;79.69;96433.09;5056110;28;20485;-51
2021/11/10 04:17:56;;;;;;;15.60;9.35;;;;;;;2.76;79.51;96436.06;5071959;28;20079;-52
2021/11/10 04:20:24;;;;;;;13.70;9.52;;;;;;;2.81;79.20;96437.91;5055248;28;20044;-52
2021/11/10 04:22:52;;;;;;;14.50;9.38;;;;;;;2.74;79.38;96437.38;5055986;28;20398;-49
2021/11/10 04:25:19;;;;;;;11.93;8.60;;;;;;;2.78;79.31;96433.91;5036940;28;20045;-51
2021/11/10 04:27:47;;;;;;;11.70;8.73;;;;;;;2.86;79.17;96437.09;5068609;28;20079;-51
2021/11/10 04:30:14;;;;;;;14.07;8.80;;;;;;;2.96;78.76;96434.41;5066947;28;20516;-51
2021/11/10 04:32:42;;;;;;;15.00;9.60;;;;;;;3.07;77.37;96441.31;5055355;28;20045;-52
2021/11/10 04:35:11;;;;;;;12.27;8.82;;;;;;;2.98;77.55;96433.06;5071939;28;20048;-50
2021/11/10 04:37:40;;;;;;;13.73;9.77;;;;;;;3.07;77.85;96427.97;5066212;28;20110;-52
2021/11/10 04:40:10;;;;;;;13.63;8.88;;;;;;;2.98;77.85;96427.72;5060925;28;20049;-53
2021/11/10 04:42:40;;;;;;;11.98;8.40;;;;;;;3.00;78.43;96438.16;5049315;28;20043;-54
2021/11/10 04:45:16;;;;;;;14.52;9.15;;;;;;;2.84;79.36;96434.69;5053696;28;20498;-51
2021/11/10 04:47:43;;;;;;;13.52;9.10;;;;;;;2.74;79.78;96448.06;5071771;28;20390;-49
2021/11/10 04:50:11;;;;;;;12.10;8.35;;;;;;;2.72;79.93;96451.00;5066147;28;20111;-49
2021/11/10 04:52:38;;;;;;;17.92;10.75;;;;;;;2.63;80.27;96441.13;5053893;28;20414;-53
2021/11/10 04:55:06;;;;;;;14.20;9.73;;;;;;;2.55;80.51;96435.25;5076211;28;20048;-50
2021/11/10 04:57:35;;;;;;;14.07;9.30;;;;;;;2.60;80.22;96441.66;5090405;28;20666;-51
2021/11/10 05:00:04;;;;;;;13.65;9.07;;;;;;;2.76;79.94;96438.72;5062389;28;20048;-48
2021/11/10 05:02:39;;;;;;;15.60;9.00;;;;;;;2.81;79.53;96443.25;5049856;28;20040;-52
2021/11/10 05:05:11;;;;;;;14.27;9.23;;;;;;;2.91;79.04;96448.56;5053096;28;20077;-50
2021/11/10 05:07:39;;;;;;;13.02;8.55;;;;;;;3.01;78.90;96437.84;5072007;28;20046;-50
2021/11/10 05:10:08;;;;;;;12.23;8.82;;;;;;;3.00;79.28;96438.94;5054850;28;20502;-54
2021/11/10 05:12:35;;;;;;;15.25;10.25;;;;;;;2.96;79.01;96424.53;5038270;28;20051;-48
2021/11/10 05:15:03;;;;;;;16.90;10.07;;;;;;;3.21;78.59;96428.19;5057238;28;20379;-53
2021/11/10 05:17:31;;;;;;;15.07;9.40;;;;;;;3.11;79.08;96433.56;5038307;28;20044;-52
2021/11/10 05:19:58;;;;;;;13.20;9.38;;;;;;;3.02;79.54;96433.31;5050496;28;20047;-51
2021/11/10 05:22:45;;;;;;;13.75;9.63;;;;;;;3.26;79.21;96437.00;5051530;28;20068;-50
2021/11/10 05:25:12;;;;;;;20.05;12.30;;;;;;;3.50;79.23;96426.44;5072317;28;20632;-53
2021/11/10 05:27:40;;;;;;;17.10;11.93;;;;;;;3.69;78.36;96432.00;5072933;28;20494;-52
2021/11/10 05:30:09;;;;;;;15.75;10.73;;;;;;;3.40;79.21;96439.09;5082215;28;20395;-52
2021/11/10 05:32:36;;;;;;;17.55;10.45;;;;;;;3.18;80.61;96431.41;5049718;28;20124;-54
2021/11/10 05:35:04;;;;;;;17.83;9.43;;;;;;;3.08;80.95;96432.22;5071920;28;20043;-54
2021/11/10 05:37:32;;;;;;;15.93;9.80;;;;;;;2.99;81.10;96429.31;5071712;28;20051;-54
2021/11/10 05:39:59;;;;;;;16.33;10.18;;;;;;;2.98;81.02;96448.28;5072309;28;20490;-53
2021/11/10 05:42:26;;;;;;;17.98;10.63;;;;;;;3.16;80.43;96450.41;5073901;28;20044;-51
2021/11/10 05:44:54;;;;;;;16.42;10.30;;;;;;;3.10;80.42;96446.13;5072663;28;20047;-54
2021/11/10 05:47:21;;;;;;;13.93;9.80;;;;;;;2.93;80.92;96454.47;5072990;28;20562;-54
2021/11/10 05:49:49;;;;;;;18.17;10.05;;;;;;;3.17;80.72;96443.16;5067114;28;20037;-53
2021/11/10 05:52:16;;;;;;;18.08;10.15;;;;;;;3.12;80.69;96435.16;5067575;28;20072;-53
2021/11/10 05:54:43;;;;;;;17.17;9.80;;;;;;;2.85;81.31;96438.97;5061116;28;20512;-54
2021/11/10 05:57:13;;;;;;;20.40;10.73;;;;;;;2.83;81.71;96446.47;5058844;28;20069;-51
2021/11/10 05:59:42;;;;;;;14.07;9.82;;;;;;;2.68;82.00;96431.25;5071257;28;20054;-52
2021/11/10 06:02:10;;;;;;;15.32;10.48;;;;;;;2.72;81.82;96426.97;5073212;28;20080;-51
2021/11/10 06:04:37;;;;;;;13.68;8.52;;;;;;;2.81;81.46;96435.25;5066042;28;20413;-52
2021/11/10 06:07:06;;;;;;;17.13;10.15;;;;;;;2.95;80.97;96433.59;5077934;28;20463;-53
2021/11/10 06:09:33;;;;;;;16.58;9.68;;;;;;;2.76;81.09;96435.22;5082767;28;20453;-53
2021/11/10 06:12:01;;;;;;;15.52;10.30;;;;;;;2.76;81.41;96437.91;5062164;28;20044;-47
2021/11/10 06:14:28;;;;;;;14.73;9.15;;;;;;;2.71;81.39;96437.94;5062290;28;20401;-52
2021/11/10 06:16:56;;;;;;;16.10;9.63;;;;;;;2.79;81.16;96445.38;5080592;28;20123;-49
2021/11/10 06:19:25;;;;;;;14.35;9.13;;;;;;;2.81;81.14;96446.72;5070511;28;20045;-50
2021/11/10 06:21:54;;;;;;;18.20;9.55;;;;;;;2.89;80.84;96450.72;5071423;28;20040;-50
2021/11/10 06:24:21;;;;;;;13.85;9.57;;;;;;;2.85;80.92;96462.22;5058224;28;20063;-50
2021/11/10 06:26:51;;;;;;;14.70;9.02;;;;;;;2.76;81.21;96465.44;5056300;28;20102;-52
2021/11/10 06:29:20;;;;;;;19.25;10.75;;;;;;;3.01;80.25;96469.94;5073361;28;20135;-52
2021/11/10 06:31:47;;;;;;;19.40;9.32;;;;;;;2.84;80.49;96465.97;5067188;28;20071;-53
2021/11/10 06:34:14;;;;;;;17.17;10.55;;;;;;;3.65;78.29;96467.63;5071658;28;20218;-50
2021/11/10 06:36:41;;;;;;;16.10;10.55;;;;;;;3.29;78.37;96462.41;5076244;28;20549;-51
2021/11/10 06:39:08;;;;;;;16.92;9.65;;;;;;;3.23;79.82;96460.81;5073068;28;20510;-51
2021/11/10 06:41:36;;;;;;;13.98;9.02;;;;;;;3.78;77.19;96476.91;5078778;28;20130;-54
2021/11/10 06:44:03;;;;;;;15.02;9.75;;;;;;;3.50;78.02;96476.50;5074004;28;20122;-53
2021/11/10 06:46:31;;;;;;;13.60;9.18;;;;;;;3.43;78.58;96481.34;5065267;28;20072;-51
2021/11/10 06:48:58;;;;;;;15.88;9.63;;;;;;;3.13;79.73;96483.03;5068204;28;20718;-51
2021/11/10 06:51:28;;;;;;;15.63;9.88;;;;;;;3.04;80.31;96472.06;5046310;28;20055;-54
2021/11/10 06:53:55;;;;;;;16.02;10.07;;;;;;;3.13;80.54;96483.03;5071645;28;20460;-50
2021/11/10 06:56:22;;;;;;;13.65;9.02;;;;;;;3.07;80.94;96483.31;5079708;28;20044;-49
2021/11/10 06:58:49;;;;;;;14.48;9.20;;;;;;;2.91;82.00;96480.66;5092181;28;20048;-49
2021/11/10 07:01:17;;;;;;;16.40;9.70;;;;;;;3.07;81.19;96478.75;5079992;28;20056;-48
2021/11/10 07:03:46;;;;;;;15.40;9.77;;;;;;;2.98;81.58;96489.19;5061810;28;20128;-47
2021/11/10 07:06:14;;;;;;;18.00;10.73;;;;;;;2.92;82.00;96474.22;5078224;28;20090;-49
2021/11/10 07:08:41;;;;;;;18.23;9.88;;;;;;;2.81;82.87;96478.00;5092082;28;20134;-48
2021/11/10 07:11:08;;;;;;;17.38;11.05;;;;;;;2.78;83.30;96481.19;5089115;28;20843;-48
2021/11/10 07:13:36;;;;;;;14.93;9.63;;;;;;;2.87;83.50;96484.94;5073446;28;20043;-50
2021/11/10 07:16:04;;;;;;;15.85;9.70;;;;;;;3.00;82.51;96472.91;5089404;28;20040;-49
2021/11/10 07:18:30;;;;;;;16.75;9.95;;;;;;;3.09;82.13;96479.28;5091696;28;20071;-49
2021/11/10 07:20:57;;;;;;;15.07;9.52;;;;;;;3.04;82.65;96482.75;5072894;28;20052;-51
2021/11/10 07:23:25;;;;;;;14.82;9.75;;;;;;;3.17;82.22;96493.97;5071023;28;20028;-50
2021/11/10 07:25:53;;;;;;;16.60;9.73;;;;;;;3.18;82.50;96487.53;5064937;28;20398;-53
2021/11/10 07:28:19;;;;;;;14.18;9.23;;;;;;;3.25;82.39;96490.72;5091445;28;20052;-54
2021/11/10 07:30:46;;;;;;;14.07;9.02;;;;;;;3.29;82.39;96491.81;5084109;28;20434;-52
2021/11/10 07:33:13;;;;;;;18.42;10.68;;;;;;;3.31;82.95;96489.66;5069483;28;20110;-54
2021/11/10 07:35:40;;;;;;;17.50;9.52;;;;;;;3.41;82.79;96486.16;5078242;28;20042;-51
2021/11/10 07:38:08;;;;;;;19.38;10.50;;;;;;;3.34;83.05;96482.97;5065955;28;20057;-55
2021/11/10 07:40:36;;;;;;;14.68;9.48;;;;;;;3.44;82.42;96489.06;5075988;28;20040;-53
2021/11/10 07:43:03;;;;;;;14.18;9.93;;;;;;;3.47;82.77;96490.41;5061786;28;20620;-53
2021/11/10 07:45:35;;;;;;;15.32;10.50;;;;;;;3.64;81.71;96498.09;5047497;28;20490;-56
2021/11/10 07:48:07;;;;;;;16.37;10.33;;;;;;;3.66;81.65;96493.28;5095535;28;20066;-54
2021/11/10 07:50:35;;;;;;;16.60;11.02;;;;;;;3.65;81.93;96486.34;5087119;28;20036;-56
2021/11/10 07:53:04;;;;;;;15.13;9.88;;;;;;;3.64;82.09;96493.56;5058408;28;20135;-54
2021/11/10 07:55:32;;;;;;;17.35;10.85;;;;;;;3.55;82.75;96481.03;5077982;28;20036;-50
2021/11/10 07:57:59;;;;;;;15.23;10.77;;;;;;;3.64;82.89;96474.03;5079367;28;20481;-50
2021/11/10 08:00:36;;;;;;;16.13;10.65;;;;;;;3.68;83.26;96483.13;5075488;28;20036;-53
2021/11/10 08:03:04;;;;;;;15.00;10.40;;;;;;;3.75;82.82;96472.91;5073488;28;20048;-51
2021/11/10 08:05:32;;;;;;;16.95;10.40;;;;;;;3.86;82.61;96479.81;5072115;28;20033;-51
2021/11/10 08:07:59;;;;;;;13.43;9.63;;;;;;;3.89;82.95;96476.56;5073377;28;20044;-49
2021/11/10 08:10:46;;;;;;;18.90;10.73;;;;;;;3.95;82.54;96475.47;5075921;28;20040;-51
2021/11/10 08:13:13;;;;;;;16.38;10.18;;;;;;;3.99;82.59;96471.16;5074625;28;20074;-50
2021/11/10 08:15:41;;;;;;;15.48;10.38;;;;;;;4.08;82.57;96471.38;5075248;28;20391;-52
2021/11/10 08:18:08;;;;;;;16.38;9.45;;;;;;;4.10;82.41;96468.44;5070113;28;20036;-49
2021/11/10 08:20:35;;;;;;;16.20;10.15;;;;;;;4.16;82.70;96470.81;5079046;28;20075;-52
2021/11/10 08:23:02;;;;;;;20.42;10.93;;;;;;;4.18;82.70;96465.16;5070164;28;20044;-49
2021/11/10 08:25:30;;;;;;;16.88;9.98;;;;;;;4.30;82.38;96472.88;5059310;28;20421;-49
2021/11/10 08:27:57;;;;;;;15.18;8.73;;;;;;;4.32;82.50;96468.84;5082052;28;20064;-52
2021/11/10 08:30:25;;;;;;;14.40;10.15;;;;;;;4.47;81.71;96464.44;5073308;28;20501;-52
2021/11/10 08:32:53;;;;;;;12.23;8.75;;;;;;;4.56;81.30;96463.56;5072948;28;20064;-48
2021/11/10 08:35:21;;;;;;;16.42;9.68;;;;;;;4.56;81.22;96466.25;5054812;28;20079;-51
2021/11/10 08:37:51;;;;;;;13.05;8.90;;;;;;;4.67;81.03;96469.63;5072559;28;20050;-51
2021/11/10 08:40:19;;;;;;;13.70;8.77;;;;;;;4.66;81.31;96476.06;5079677;28;20556;-51
2021/11/10 08:42:46;;;;;;;15.52;8.45;;;;;;;4.70;81.36;96487.84;5082992;28;20524;-48
2021/11/10 08:45:19;;;;;;;15.13;8.70;;;;;;;4.72;80.87;96480.31;5082195;28;20043;-49
2021/11/10 08:47:48;;;;;;;;;;;;;;;4.81;80.81;96483.19;5078495;28;20131;-48
2021/11/10 08:50:19;;;;;;;11.68;8.40;;;;;;;4.90;80.81;96478.81;5072636;28;19926;-49
2021/11/10 08:52:47;;;;;;;12.18;7.60;;;;;;;4.98;79.59;96472.06;5071400;28;20105;-53
2021/11/10 08:55:15;;;;;;;12.07;8.25;;;;;;;4.97;79.35;96465.06;5071020;28;20500;-52
2021/11/10 08:57:45;;;;;;;11.02;7.82;;;;;;;4.97;79.29;96471.22;5073803;28;20040;-49
2021/11/10 09:00:17;;;;;;;11.45;7.88;;;;;;;5.08;80.00;96471.94;5072545;28;20050;-48
2021/11/10 09:02:45;;;;;;;12.55;8.32;;;;;;;5.14;78.57;96460.09;5049658;28;20053;-48
2021/11/10 09:05:13;;;;;;;11.90;7.97;;;;;;;5.18;78.46;96461.13;5070887;28;20806;-51
2021/11/10 09:07:40;;;;;;;15.75;9.30;;;;;;;5.39;78.32;96456.31;5077320;28;20040;-51
2021/11/10 09:10:10;;;;;;;13.25;8.77;;;;;;;5.36;79.39;96462.25;5063150;28;20045;-47
2021/11/10 09:12:38;;;;;;;16.60;8.48;;;;;;;5.45;78.19;96467.78;5061476;28;20102;-48
2021/11/10 09:15:09;;;;;;;12.18;8.88;;;;;;;5.50;77.77;96465.06;5060240;28;20517;-48
2021/11/10 09:17:37;;;;;;;13.00;8.88;;;;;;;5.50;77.95;96462.38;5070542;28;20481;-50
2021/11/10 09:20:08;;;;;;;12.18;8.63;;;;;;;5.56;78.93;96466.59;5077897;28;20127;-48
2021/11/10 09:22:36;;;;;;;15.63;8.77;;;;;;;5.70;77.77;96477.44;5071912;28;20509;-51
2021/11/10 09:25:05;;;;;;;14.85;8.80;;;;;;;5.79;76.33;96481.88;5065409;28;20119;-48
2021/11/10 09:27:34;;;;;;;15.20;9.25;;;;;;;5.74;76.88;96473.88;5071628;28;20135;-51
2021/11/10 09:30:08;;;;;;;12.57;8.77;;;;;;;5.81;77.46;96473.53;5070781;28;20131;-53
2021/11/10 09:32:37;;;;;;;12.70;9.15;;;;;;;5.96;76.29;96486.81;5049188;28;20049;-51
2021/11/10 09:35:06;;;;;;;13.70;9.02;;;;;;;6.05;75.61;96487.75;5061708;28;20036;-48
2021/11/10 09:37:34;;;;;;;15.15;8.73;;;;;;;6.08;74.58;96489.88;5082364;28;20412;-51
2021/11/10 09:40:04;;;;;;;12.50;8.40;;;;;;;6.01;75.62;96489.44;5061262;28;20048;-48
2021/11/10 09:42:32;;;;;;;13.30;8.15;;;;;;;6.04;75.56;96498.78;5061514;28;20045;-48
2021/11/10 09:45:00;;;;;;;13.65;8.27;;;;;;;6.19;75.75;96495.91;5077398;28;20043;-49
2021/11/10 09:47:27;;;;;;;16.75;9.50;;;;;;;6.20;75.85;96491.31;5081358;28;20454;-50
2021/11/10 09:49:54;;;;;;;16.13;9.32;;;;;;;6.27;75.42;96481.00;5018995;28;1471436;-51
2021/11/10 09:52:21;;;;;;;14.10;9.27;;;;;;;6.47;74.23;96491.47;5064643;28;20039;-51
2021/11/10 09:54:48;;;;;;;14.35;9.80;;;;;;;6.53;73.25;96494.84;5056604;28;20136;-50
2021/11/10 09:57:16;;;;;;;16.10;8.95;;;;;;;6.98;71.38;96493.31;5075612;28;20464;-48
2021/11/10 09:59:44;;;;;;;19.60;11.38;;;;;;;7.21;70.18;96477.31;5075561;28;20119;-52
2021/11/10 10:02:39;;;;;;;15.50;9.18;;;;;;;7.10;70.80;96474.03;5070560;28;20044;-47
2021/11/10 10:05:08;;;;;;;16.58;9.90;;;;;;;7.38;70.37;96471.38;5081612;28;20533;-51
2021/11/10 10:07:35;;;;;;;18.52;9.77;;;;;;;7.23;70.91;96461.69;5068564;28;20036;-49
2021/11/10 10:10:03;;;;;;;14.65;9.40;;;;;;;7.14;71.58;96456.19;5067382;28;20074;-47
2021/11/10 10:12:31;;;;;;;13.63;9.13;;;;;;;7.09;72.38;96458.19;5079947;28;20055;-51
2021/11/10 10:14:58;;;;;;;13.30;8.48;;;;;;;7.08;73.56;96452.00;5069780;28;20115;-49
2021/11/10 10:17:35;;;;;;;14.23;8.40;;;;;;;7.12;73.97;96447.63;5072028;28;20040;-52
2021/11/10 10:20:05;;;;;;;15.68;8.68;;;;;;;7.11;74.62;96445.22;5070056;28;20470;-52
2021/11/10 10:22:32;;;;;;;15.38;8.93;;;;;;;7.08;74.44;96427.78;5040115;28;20044;-49
2021/11/10 10:25:00;;;;;;;14.93;10.35;;;;;;;7.08;74.96;96417.00;5065429;28;20032;-49
2021/11/10 10:27:30;;;;;;;14.15;9.45;;;;;;;7.07;74.93;96412.72;5071280;28;20072;-49
2021/11/10 10:30:37;;;;;;;14.15;9.13;;;;;;;7.12;74.73;96404.59;5071909;28;20048;-49
2021/11/10 10:33:05;;;;;;;15.25;9.15;;;;;;;7.12;73.85;96418.03;5074486;28;20034;-51
2021/11/10 10:35:32;;;;;;;14.90;9.38;;;;;;;7.20;73.79;96416.53;5078400;28;20128;-49
2021/11/10 10:38:00;;;;;;;15.27;8.85;;;;;;;7.20;72.65;96420.03;5074134;28;20048;-49
2021/11/10 10:40:29;;;;;;;13.35;8.25;;;;;;;7.15;73.22;96422.81;5074105;28;20131;-49
2021/11/10 10:42:57;;;;;;;13.27;7.63;;;;;;;7.20;73.50;96422.72;5067886;28;20040;-51
2021/11/10 10:45:52;;;;;;;13.45;8.07;;;;;;;7.41;72.66;96411.53;5078897;28;20103;-49
2021/11/10 10:48:23;;;;;;;15.57;8.27;;;;;;;7.46;72.93;96406.06;5067132;28;20060;-48
2021/11/10 10:51:04;;;;;;;22.38;8.48;;;;;;;7.46;72.93;96395.28;5045112;28;20044;-48
2021/11/10 10:53:47;;;;;;;12.30;7.82;;;;;;;7.37;74.21;96384.41;5058784;28;20048;-48
2021/11/10 10:56:14;;;;;;;11.30;8.05;;;;;;;7.35;72.62;96378.56;5067232;28;20047;-49
2021/11/10 10:58:42;;;;;;;9.05;6.75;;;;;;;7.34;73.06;96381.53;5070292;28;20573;-52
2021/11/10 11:01:24;;;;;;;11.43;7.55;;;;;;;7.35;72.62;96385.84;5066636;28;20052;-50
2021/11/10 11:03:57;;;;;;;15.00;7.70;;;;;;;7.34;73.22;96384.22;5065970;28;20047;-52
2021/11/10 11:06:29;;;;;;;9.55;6.60;;;;;;;7.47;72.67;96378.84;5069431;28;20391;-52
2021/11/10 11:08:58;;;;;;;10.68;6.82;;;;;;;7.43;73.06;96398.59;5053620;28;20048;-52
2021/11/10 11:11:44;;;;;;;10.75;6.75;;;;;;;7.42;72.69;96402.38;5067857;28;20048;-52
2021/11/10 11:14:37;;;;;;;10.88;6.57;;;;;;;7.78;70.76;96391.66;5070576;28;20570;-51
2021/11/10 11:17:24;;;;;;;;;;;;;;;7.72;71.02;96399.03;5040402;28;20049;-49
2021/11/10 11:19:57;;;;;;;10.13;6.85;;;;;;;7.57;72.01;96391.31;5060200;28;20449;-51
2021/11/10 11:22:44;;;;;;;12.10;6.93;;;;;;;7.50;72.69;96393.59;5069423;28;20057;-51
2021/11/10 11:25:14;;;;;;;12.50;6.85;;;;;;;7.52;71.22;96386.03;5058573;28;20076;-48
2021/11/10 11:27:55;;;;;;;9.70;5.97;;;;;;;7.44;71.81;96389.41;5068194;28;20088;-51
2021/11/10 11:30:28;;;;;;;12.63;7.25;;;;;;;7.60;72.31;96373.72;5069246;28;20128;-51
2021/11/10 11:32:58;;;;;;;10.77;6.30;;;;;;;7.61;71.35;96370.75;5079497;28;20147;-48
2021/11/10 11:35:31;;;;;;;11.43;6.03;;;;;;;7.56;71.65;96376.22;5074808;28;20147;-53
2021/11/10 11:38:02;;;;;;;8.43;5.78;;;;;;;7.47;70.94;96383.41;5051930;28;20135;-51
2021/11/10 11:40:33;;;;;;;8.50;5.15;;;;;;;7.44;71.60;96378.63;5042343;28;20040;-54
2021/11/10 11:43:04;;;;;;;10.23;6.05;;;;;;;7.43;71.86;96372.47;5045813;28;20510;-52